createdAt,value
2018-04-21T00:00:56.269Z,19.30
2018-04-21T00:01:56.258Z,19.39
2018-04-21T00:02:56.240Z,19.32
2018-04-21T00:03:56.237Z,19.29
2018-04-21T00:04:56.275Z,19.32
2018-04-21T00:05:56.206Z,19.32
2018-04-21T00:06:56.192Z,19.32
2018-04-21T00:07:56.183Z,19.27
2018-04-21T00:08:56.176Z,19.30
2018-04-21T00:09:56.157Z,19.29
2018-04-21T00:10:56.150Z,19.26
2018-04-21T00:11:56.141Z,19.20
2018-04-21T00:12:56.122Z,19.26
2018-04-21T00:13:56.117Z,19.20
2018-04-21T00:14:56.096Z,19.20
2018-04-21T00:15:56.088Z,19.19
2018-04-21T00:16:56.084Z,19.12
2018-04-21T00:17:56.236Z,19.17
2018-04-21T00:18:56.052Z,19.16
2018-04-21T00:19:56.036Z,19.04
2018-04-21T00:20:56.029Z,18.97
2018-04-21T00:21:56.016Z,19.01
2018-04-21T00:22:56.001Z,19.08
2018-04-21T00:23:55.987Z,19.05
2018-04-21T00:24:55.978Z,18.94
2018-04-21T00:25:55.965Z,18.91
2018-04-21T00:26:55.950Z,18.88
2018-04-21T00:27:55.940Z,18.97
2018-04-21T00:28:55.929Z,18.82
2018-04-21T00:29:55.915Z,18.81
2018-04-21T00:30:55.916Z,18.79
2018-04-21T00:31:55.902Z,18.76
2018-04-21T00:32:55.879Z,18.78
2018-04-21T00:33:56.037Z,18.74
2018-04-21T00:34:55.856Z,18.73
2018-04-21T00:35:55.853Z,18.68
2018-04-21T00:36:55.887Z,18.64
2018-04-21T00:37:55.818Z,18.52
2018-04-21T00:38:55.808Z,18.57
2018-04-21T00:39:55.794Z,18.68
2018-04-21T00:40:55.782Z,18.64
2018-04-21T00:41:55.902Z,18.70
2018-04-21T00:42:55.766Z,18.68
2018-04-21T00:43:55.745Z,18.68
2018-04-21T00:44:55.735Z,18.70
2018-04-21T00:45:55.724Z,18.73
2018-04-21T00:46:55.712Z,18.66
2018-04-21T00:47:55.704Z,18.58
2018-04-21T00:48:55.683Z,18.52
2018-04-21T00:49:55.681Z,18.58
2018-04-21T00:50:55.676Z,18.45
2018-04-21T00:51:55.649Z,18.51
2018-04-21T00:52:55.643Z,18.46
2018-04-21T00:53:55.623Z,18.43
2018-04-21T00:54:55.610Z,18.37
2018-04-21T00:55:55.597Z,18.41
2018-04-21T00:56:55.585Z,18.39
2018-04-21T00:57:55.571Z,18.36
2018-04-21T00:58:55.568Z,18.37
2018-04-21T00:59:55.552Z,18.37
2018-04-21T01:00:55.537Z,18.28
2018-04-21T01:01:55.521Z,18.23
2018-04-21T01:02:55.512Z,18.23
2018-04-21T01:03:55.496Z,18.23
2018-04-21T01:04:55.486Z,18.26
2018-04-21T01:05:55.471Z,18.24
2018-04-21T01:06:55.461Z,18.16
2018-04-21T01:07:55.447Z,18.19
2018-04-21T01:08:55.436Z,18.15
2018-04-21T01:09:55.427Z,18.09
2018-04-21T01:10:55.412Z,18.11
2018-04-21T01:11:55.407Z,18.18
2018-04-21T01:12:55.389Z,18.16
2018-04-21T01:13:55.375Z,18.16
2018-04-21T01:14:55.360Z,18.13
2018-04-21T01:15:55.351Z,18.11
2018-04-21T01:16:55.334Z,18.13
2018-04-21T01:17:55.334Z,18.11
2018-04-21T01:18:55.311Z,18.11
2018-04-21T01:19:55.299Z,18.12
2018-04-21T01:20:55.295Z,18.06
2018-04-21T01:21:55.271Z,18.00
2018-04-21T01:22:55.259Z,18.09
2018-04-21T01:23:55.248Z,18.00
2018-04-21T01:24:55.233Z,18.00
2018-04-21T01:25:55.224Z,17.98
2018-04-21T01:26:55.208Z,17.98
2018-04-21T01:27:55.196Z,17.95
2018-04-21T01:28:55.182Z,17.97
2018-04-21T01:29:55.170Z,17.91
2018-04-21T01:30:55.158Z,17.91
2018-04-21T01:31:55.148Z,17.84
2018-04-21T01:32:55.132Z,17.79
2018-04-21T01:33:55.134Z,17.73
2018-04-21T01:34:55.118Z,17.72
2018-04-21T01:35:55.098Z,17.79
2018-04-21T01:36:55.088Z,17.80
2018-04-21T01:37:55.067Z,17.78
2018-04-21T01:38:55.057Z,17.76
2018-04-21T01:39:55.049Z,17.78
2018-04-21T01:40:55.036Z,17.72
2018-04-21T01:41:55.019Z,17.68
2018-04-21T01:42:55.006Z,17.73
2018-04-21T01:43:55.014Z,17.66
2018-04-21T01:44:54.979Z,17.72
2018-04-21T01:45:54.966Z,17.59
2018-04-21T01:46:54.956Z,17.52
2018-04-21T01:47:54.940Z,17.50
2018-04-21T01:48:54.927Z,17.52
2018-04-21T01:49:54.916Z,17.49
2018-04-21T01:50:54.923Z,17.42
2018-04-21T01:51:54.887Z,17.42
2018-04-21T01:52:54.884Z,17.37
2018-04-21T01:53:54.881Z,17.37
2018-04-21T01:54:54.850Z,17.32
2018-04-21T01:55:54.837Z,17.32
2018-04-21T01:56:54.875Z,17.30
2018-04-21T01:57:54.810Z,17.28
2018-04-21T01:58:54.795Z,17.32
2018-04-21T01:59:54.784Z,17.27
2018-04-21T02:00:54.784Z,17.23
2018-04-21T02:01:54.759Z,17.22
2018-04-21T02:02:54.746Z,17.19
2018-04-21T02:03:54.737Z,17.17
2018-04-21T02:04:54.718Z,17.19
2018-04-21T02:05:54.706Z,17.22
2018-04-21T02:06:54.698Z,17.10
2018-04-21T02:07:54.685Z,17.09
2018-04-21T02:08:54.669Z,17.16
2018-04-21T02:09:54.755Z,17.07
2018-04-21T02:10:54.643Z,17.05
2018-04-21T02:11:54.628Z,17.01
2018-04-21T02:12:54.619Z,16.99
2018-04-21T02:13:54.604Z,16.99
2018-04-21T02:14:54.596Z,16.95
2018-04-21T02:15:54.575Z,16.89
2018-04-21T02:16:54.563Z,16.95
2018-04-21T02:17:54.563Z,16.95
2018-04-21T02:18:54.543Z,16.91
2018-04-21T02:19:54.522Z,16.89
2018-04-21T02:20:54.512Z,16.83
2018-04-21T02:21:54.501Z,16.82
2018-04-21T02:22:54.485Z,16.82
2018-04-21T02:23:54.468Z,16.82
2018-04-21T02:24:54.457Z,16.87
2018-04-21T02:25:54.535Z,16.80
2018-04-21T02:26:54.431Z,16.82
2018-04-21T02:27:54.416Z,16.77
2018-04-21T02:28:54.401Z,16.79
2018-04-21T02:29:54.388Z,16.69
2018-04-21T02:30:54.376Z,16.72
2018-04-21T02:31:54.365Z,16.69
2018-04-21T02:32:54.351Z,16.76
2018-04-21T02:33:54.332Z,16.79
2018-04-21T02:34:54.321Z,16.66
2018-04-21T02:35:54.310Z,16.73
2018-04-21T02:36:54.305Z,16.68
2018-04-21T02:37:54.280Z,16.68
2018-04-21T02:38:54.271Z,16.74
2018-04-21T02:39:54.255Z,16.66
2018-04-21T02:40:54.239Z,16.68
2018-04-21T02:41:54.230Z,16.66
2018-04-21T02:42:54.215Z,16.61
2018-04-21T02:43:54.211Z,16.58
2018-04-21T02:44:54.202Z,16.61
2018-04-21T02:45:54.175Z,16.55
2018-04-21T02:46:54.179Z,16.50
2018-04-21T02:47:54.149Z,16.47
2018-04-21T02:48:54.143Z,16.50
2018-04-21T02:49:54.169Z,16.41
2018-04-21T02:50:54.109Z,16.46
2018-04-21T02:51:54.101Z,16.40
2018-04-21T02:52:54.080Z,16.49
2018-04-21T02:53:54.071Z,16.43
2018-04-21T02:54:54.048Z,16.36
2018-04-21T02:55:54.044Z,16.36
2018-04-21T02:56:54.026Z,16.41
2018-04-21T02:57:54.008Z,16.31
2018-04-21T02:58:53.997Z,16.37
2018-04-21T02:59:53.984Z,16.31
2018-04-21T03:00:53.973Z,16.25
2018-04-21T03:01:53.962Z,16.43
2018-04-21T03:02:53.978Z,16.31
2018-04-21T03:03:53.927Z,16.22
2018-04-21T03:04:53.920Z,16.17
2018-04-21T03:05:53.925Z,16.22
2018-04-21T03:06:53.894Z,16.22
2018-04-21T03:07:53.873Z,16.16
2018-04-21T03:08:53.870Z,16.16
2018-04-21T03:09:53.847Z,16.13
2018-04-21T03:10:53.835Z,16.12
2018-04-21T03:11:53.820Z,16.17
2018-04-21T03:12:53.806Z,16.17
2018-04-21T03:13:53.790Z,16.13
2018-04-21T03:14:53.776Z,16.18
2018-04-21T03:15:53.764Z,16.18
2018-04-21T03:16:53.755Z,16.12
2018-04-21T03:17:53.744Z,16.22
2018-04-21T03:18:53.882Z,16.16
2018-04-21T03:19:53.713Z,16.22
2018-04-21T03:20:53.700Z,16.09
2018-04-21T03:21:53.683Z,16.06
2018-04-21T03:22:53.668Z,16.06
2018-04-21T03:23:53.653Z,16.09
2018-04-21T03:24:53.638Z,16.03
2018-04-21T03:25:53.660Z,15.99
2018-04-21T03:26:53.623Z,16.05
2018-04-21T03:27:53.597Z,15.98
2018-04-21T03:28:53.585Z,15.90
2018-04-21T03:29:53.571Z,15.91
2018-04-21T03:30:53.557Z,15.91
2018-04-21T03:31:53.556Z,16.00
2018-04-21T03:32:53.529Z,15.98
2018-04-21T03:33:53.514Z,15.87
2018-04-21T03:34:53.501Z,15.87
2018-04-21T03:35:53.497Z,15.91
2018-04-21T03:36:53.473Z,15.84
2018-04-21T03:37:53.458Z,15.72
2018-04-21T03:38:53.453Z,15.80
2018-04-21T03:39:53.452Z,15.83
2018-04-21T03:40:53.419Z,15.73
2018-04-21T03:41:53.402Z,15.66
2018-04-21T03:42:53.388Z,15.69
2018-04-21T03:43:53.381Z,15.69
2018-04-21T03:44:53.362Z,15.72
2018-04-21T03:45:53.350Z,15.66
2018-04-21T03:46:53.332Z,15.65
2018-04-21T03:47:53.319Z,15.57
2018-04-21T03:48:53.310Z,15.60
2018-04-21T03:49:53.293Z,15.63
2018-04-21T03:50:53.283Z,15.59
2018-04-21T03:51:53.265Z,15.63
2018-04-21T03:52:53.251Z,15.62
2018-04-21T03:53:53.239Z,15.63
2018-04-21T03:54:53.301Z,15.57
2018-04-21T03:55:53.211Z,15.59
2018-04-21T03:56:53.194Z,15.65
2018-04-21T03:57:53.234Z,15.63
2018-04-21T03:58:53.168Z,15.62
2018-04-21T03:59:53.149Z,15.60
2018-04-21T04:00:53.139Z,15.60
2018-04-21T04:01:53.122Z,15.41
2018-04-21T04:02:53.114Z,15.51
2018-04-21T04:03:53.098Z,15.43
2018-04-21T04:04:53.079Z,15.44
2018-04-21T04:05:53.074Z,15.39
2018-04-21T04:06:53.061Z,15.44
2018-04-21T04:07:53.157Z,15.41
2018-04-21T04:08:53.027Z,15.37
2018-04-21T04:09:53.017Z,15.37
2018-04-21T04:10:52.996Z,15.32
2018-04-21T04:11:52.982Z,15.39
2018-04-21T04:12:52.969Z,15.39
2018-04-21T04:13:52.952Z,15.33
2018-04-21T04:14:52.939Z,15.26
2018-04-21T04:15:52.925Z,15.26
2018-04-21T04:16:52.911Z,15.26
2018-04-21T04:17:52.897Z,15.11
2018-04-21T04:18:52.893Z,15.11
2018-04-21T04:19:52.869Z,15.17
2018-04-21T04:20:52.864Z,15.14
2018-04-21T04:21:52.891Z,15.17
2018-04-21T04:22:52.826Z,15.08
2018-04-21T04:23:52.820Z,15.05
2018-04-21T04:24:52.795Z,15.10
2018-04-21T04:25:52.903Z,15.02
2018-04-21T04:26:52.768Z,14.99
2018-04-21T04:27:52.755Z,15.04
2018-04-21T04:28:52.802Z,15.05
2018-04-21T04:29:52.725Z,14.94
2018-04-21T04:30:52.713Z,15.05
2018-04-21T04:31:52.695Z,15.02
2018-04-21T04:32:52.680Z,15.05
2018-04-21T04:33:52.672Z,15.11
2018-04-21T04:34:52.654Z,15.05
2018-04-21T04:35:52.636Z,14.99
2018-04-21T04:36:52.625Z,15.00
2018-04-21T04:37:52.609Z,14.93
2018-04-21T04:38:52.593Z,14.89
2018-04-21T04:39:52.594Z,14.78
2018-04-21T04:40:52.565Z,14.92
2018-04-21T04:41:52.671Z,14.82
2018-04-21T04:42:52.536Z,14.81
2018-04-21T04:43:52.523Z,14.89
2018-04-21T04:44:52.529Z,14.85
2018-04-21T04:45:52.494Z,14.82
2018-04-21T04:46:52.480Z,14.81
2018-04-21T04:47:52.463Z,14.79
2018-04-21T04:48:52.447Z,14.86
2018-04-21T04:49:52.433Z,14.74
2018-04-21T04:50:52.427Z,14.71
2018-04-21T04:51:52.404Z,14.74
2018-04-21T04:52:52.392Z,14.78
2018-04-21T04:53:52.376Z,14.71
2018-04-21T04:54:52.380Z,14.70
2018-04-21T04:55:52.348Z,14.68
2018-04-21T04:56:52.342Z,14.73
2018-04-21T04:57:52.317Z,14.70
2018-04-21T04:58:52.307Z,14.66
2018-04-21T04:59:52.293Z,14.59
2018-04-21T05:00:52.413Z,14.66
2018-04-21T05:01:52.262Z,14.68
2018-04-21T05:02:52.244Z,14.68
2018-04-21T05:03:52.237Z,14.71
2018-04-21T05:04:52.221Z,14.61
2018-04-21T05:05:52.202Z,14.70
2018-04-21T05:06:52.187Z,14.71
2018-04-21T05:07:52.231Z,14.73
2018-04-21T05:08:52.161Z,14.86
2018-04-21T05:09:52.144Z,14.85
2018-04-21T05:10:52.131Z,14.82
2018-04-21T05:11:52.116Z,14.70
2018-04-21T05:12:52.099Z,14.77
2018-04-21T05:13:52.101Z,14.73
2018-04-21T05:14:52.071Z,14.68
2018-04-21T05:15:52.059Z,14.78
2018-04-21T05:16:52.043Z,14.67
2018-04-21T05:17:52.032Z,14.70
2018-04-21T05:18:52.017Z,14.73
2018-04-21T05:19:52.000Z,14.86
2018-04-21T05:20:51.994Z,14.81
2018-04-21T05:21:52.025Z,14.89
2018-04-21T05:22:51.982Z,14.71
2018-04-21T05:23:51.941Z,14.85
2018-04-21T05:24:51.943Z,14.86
2018-04-21T05:25:51.911Z,14.85
2018-04-21T05:26:51.899Z,14.85
2018-04-21T05:27:51.888Z,14.79
2018-04-21T05:28:51.878Z,14.81
2018-04-21T05:29:51.854Z,14.79
2018-04-21T05:30:51.898Z,14.90
2018-04-21T05:31:51.829Z,15.00
2018-04-21T05:32:51.820Z,15.02
2018-04-21T05:33:51.833Z,15.08
2018-04-21T05:34:51.784Z,15.36
2018-04-21T05:35:51.807Z,15.59
2018-04-21T05:36:51.758Z,15.91
2018-04-21T05:37:51.741Z,16.10
2018-04-21T05:38:51.732Z,16.24
2018-04-21T05:39:51.719Z,16.37
2018-04-21T05:40:51.700Z,16.57
2018-04-21T05:41:51.688Z,16.79
2018-04-21T05:42:51.687Z,16.84
2018-04-21T05:43:51.657Z,16.91
2018-04-21T05:44:51.663Z,17.01
2018-04-21T05:45:51.637Z,17.17
2018-04-21T05:46:51.635Z,17.30
2018-04-21T05:47:51.606Z,17.35
2018-04-21T05:48:51.592Z,17.28
2018-04-21T05:49:51.588Z,17.17
2018-04-21T05:50:51.568Z,17.46
2018-04-21T05:51:51.557Z,17.63
2018-04-21T05:52:51.546Z,17.49
2018-04-21T05:53:51.538Z,17.60
2018-04-21T05:54:51.519Z,17.56
2018-04-21T05:55:51.508Z,17.46
2018-04-21T05:56:51.504Z,17.34
2018-04-21T05:57:51.480Z,17.44
2018-04-21T05:58:51.475Z,17.63
2018-04-21T05:59:51.458Z,17.65
2018-04-21T06:00:51.456Z,17.39
2018-04-21T06:01:51.445Z,17.63
2018-04-21T06:02:51.427Z,17.78
2018-04-21T06:03:51.500Z,17.73
2018-04-21T06:04:51.411Z,17.80
2018-04-21T06:05:51.390Z,17.75
2018-04-21T06:06:51.381Z,17.95
2018-04-21T06:07:51.384Z,17.80
2018-04-21T06:08:51.358Z,17.95
2018-04-21T06:09:51.348Z,17.98
2018-04-21T06:10:51.338Z,17.94
2018-04-21T06:11:51.326Z,17.91
2018-04-21T06:12:51.323Z,17.87
2018-04-21T06:13:51.331Z,17.84
2018-04-21T06:14:51.296Z,17.97
2018-04-21T06:15:51.313Z,18.00
2018-04-21T06:16:51.275Z,18.02
2018-04-21T06:17:51.271Z,18.15
2018-04-21T06:18:51.252Z,18.08
2018-04-21T06:19:51.243Z,18.30
2018-04-21T06:20:51.257Z,18.19
2018-04-21T06:21:51.223Z,18.63
2018-04-21T06:22:51.217Z,18.58
2018-04-21T06:23:51.208Z,18.51
2018-04-21T06:24:51.201Z,18.39
2018-04-21T06:25:51.183Z,18.53
2018-04-21T06:26:51.173Z,18.57
2018-04-21T06:27:51.165Z,18.43
2018-04-21T06:28:51.159Z,18.46
2018-04-21T06:29:51.154Z,18.42
2018-04-21T06:30:51.136Z,18.30
2018-04-21T06:31:51.128Z,18.18
2018-04-21T06:32:51.127Z,18.26
2018-04-21T06:33:51.106Z,18.16
2018-04-21T06:34:51.111Z,18.18
2018-04-21T06:35:51.101Z,18.16
2018-04-21T06:36:51.181Z,18.06
2018-04-21T06:37:51.089Z,18.18
2018-04-21T06:38:51.065Z,18.19
2018-04-21T06:39:51.061Z,18.24
2018-04-21T06:40:51.048Z,18.30
2018-04-21T06:41:51.049Z,18.31
2018-04-21T06:42:51.036Z,18.16
2018-04-21T06:43:51.024Z,18.24
2018-04-21T06:44:51.021Z,18.23
2018-04-21T06:45:51.030Z,17.97
2018-04-21T06:46:51.002Z,18.33
2018-04-21T06:47:50.983Z,18.31
2018-04-21T06:48:50.983Z,18.30
2018-04-21T06:49:50.966Z,18.28
2018-04-21T06:50:50.962Z,18.15
2018-04-21T06:51:50.962Z,18.30
2018-04-21T06:52:50.942Z,18.08
2018-04-21T06:53:50.926Z,18.18
2018-04-21T06:54:50.922Z,18.16
2018-04-21T06:55:50.910Z,18.08
2018-04-21T06:56:50.901Z,18.05
2018-04-21T06:57:50.892Z,18.12
2018-04-21T06:58:50.881Z,18.12
2018-04-21T06:59:50.878Z,18.03
2018-04-21T07:00:50.861Z,18.05
2018-04-21T07:01:50.849Z,17.98
2018-04-21T07:02:50.849Z,17.95
2018-04-21T07:03:50.836Z,18.02
2018-04-21T07:04:50.830Z,17.84
2018-04-21T07:05:50.816Z,17.93
2018-04-21T07:06:50.801Z,17.98
2018-04-21T07:07:50.799Z,18.05
2018-04-21T07:08:50.779Z,18.24
2018-04-21T07:09:50.773Z,18.36
2018-04-21T07:10:50.757Z,18.41
2018-04-21T07:11:50.760Z,18.28
2018-04-21T07:12:50.744Z,18.46
2018-04-21T07:13:50.833Z,18.48
2018-04-21T07:14:50.721Z,18.60
2018-04-21T07:15:50.711Z,18.58
2018-04-21T07:16:50.698Z,18.58
2018-04-21T07:17:50.686Z,18.53
2018-04-21T07:18:50.686Z,18.46
2018-04-21T07:19:50.667Z,18.81
2018-04-21T07:20:50.656Z,18.92
2018-04-21T07:21:50.653Z,19.15
2018-04-21T07:22:50.639Z,19.04
2018-04-21T07:23:50.623Z,19.27
2018-04-21T07:24:50.616Z,19.00
2018-04-21T07:25:50.601Z,19.08
2018-04-21T07:26:50.592Z,19.38
2018-04-21T07:27:50.579Z,19.39
2018-04-21T07:28:50.575Z,19.41
2018-04-21T07:29:50.572Z,19.64
2018-04-21T07:30:50.564Z,19.67
2018-04-21T07:31:50.546Z,19.55
2018-04-21T07:32:50.535Z,19.74
2018-04-21T07:33:50.520Z,19.64
2018-04-21T07:34:50.509Z,19.53
2018-04-21T07:35:50.525Z,19.52
2018-04-21T07:36:50.501Z,19.49
2018-04-21T07:37:50.490Z,19.49
2018-04-21T07:38:50.474Z,19.42
2018-04-21T07:39:50.477Z,19.53
2018-04-21T07:40:50.453Z,19.20
2018-04-21T07:41:50.444Z,19.41
2018-04-21T07:42:50.452Z,19.60
2018-04-21T07:43:50.426Z,19.72
2018-04-21T07:44:50.413Z,19.81
2018-04-21T07:45:50.407Z,19.84
2018-04-21T07:46:50.413Z,20.00
2018-04-21T07:47:50.413Z,20.15
2018-04-21T07:48:50.376Z,19.84
2018-04-21T07:49:50.366Z,19.71
2018-04-21T07:50:50.358Z,19.59
2018-04-21T07:51:50.345Z,19.71
2018-04-21T07:52:50.342Z,19.94
2018-04-21T07:53:50.377Z,20.02
2018-04-21T07:54:50.326Z,20.03
2018-04-21T07:55:50.312Z,20.03
2018-04-21T07:56:50.325Z,19.93
2018-04-21T07:57:50.296Z,20.14
2018-04-21T07:58:50.292Z,20.21
2018-04-21T07:59:50.278Z,20.26
2018-04-21T08:00:50.276Z,20.29
2018-04-21T08:01:50.280Z,20.21
2018-04-21T08:02:50.252Z,20.04
2018-04-21T08:03:50.251Z,20.03
2018-04-21T08:04:50.240Z,19.94
2018-04-21T08:05:50.243Z,19.99
2018-04-21T08:06:50.234Z,19.96
2018-04-21T08:07:50.213Z,20.03
2018-04-21T08:08:50.201Z,20.03
2018-04-21T08:09:50.194Z,20.17
2018-04-21T08:10:50.181Z,20.18
2018-04-21T08:11:50.181Z,19.97
2018-04-21T08:12:50.196Z,19.87
2018-04-21T08:13:50.156Z,20.07
2018-04-21T08:14:50.146Z,20.12
2018-04-21T08:15:50.158Z,20.37
2018-04-21T08:16:50.140Z,20.32
2018-04-21T08:17:50.138Z,20.46
2018-04-21T08:18:50.114Z,20.39
2018-04-21T08:19:50.105Z,20.17
2018-04-21T08:20:50.108Z,20.24
2018-04-21T08:21:50.095Z,20.29
2018-04-21T08:22:50.081Z,19.79
2018-04-21T08:23:50.075Z,19.79
2018-04-21T08:24:50.063Z,20.10
2018-04-21T08:25:50.152Z,20.11
2018-04-21T08:26:50.050Z,20.30
2018-04-21T08:27:50.040Z,20.36
2018-04-21T08:28:50.084Z,20.33
2018-04-21T08:29:50.023Z,20.36
2018-04-21T08:30:50.018Z,20.39
2018-04-21T08:31:50.015Z,20.44
2018-04-21T08:32:49.998Z,20.36
2018-04-21T08:33:50.006Z,20.42
2018-04-21T08:34:49.979Z,20.56
2018-04-21T08:35:49.981Z,20.71
2018-04-21T08:36:49.967Z,20.88
2018-04-21T08:37:49.984Z,20.86
2018-04-21T08:38:49.946Z,20.44
2018-04-21T08:39:49.938Z,20.52
2018-04-21T08:40:49.934Z,20.53
2018-04-21T08:41:49.928Z,20.70
2018-04-21T08:42:49.912Z,20.77
2018-04-21T08:43:49.901Z,20.52
2018-04-21T08:44:49.896Z,20.29
2018-04-21T08:45:49.898Z,20.44
2018-04-21T08:46:49.986Z,20.53
2018-04-21T08:47:49.867Z,20.58
2018-04-21T08:48:49.858Z,20.64
2018-04-21T08:49:49.845Z,20.66
2018-04-21T08:50:49.837Z,20.77
2018-04-21T08:51:49.831Z,20.90
2018-04-21T08:52:49.828Z,20.82
2018-04-21T08:53:49.823Z,20.93
2018-04-21T08:54:49.805Z,21.05
2018-04-21T08:55:49.891Z,20.86
2018-04-21T08:56:49.785Z,20.89
2018-04-21T08:57:49.780Z,21.07
2018-04-21T08:58:49.832Z,21.14
2018-04-21T08:59:49.764Z,21.37
2018-04-21T09:00:49.758Z,21.48
2018-04-21T09:01:49.746Z,21.68
2018-04-21T09:02:49.744Z,21.80
2018-04-21T09:03:49.725Z,21.78
2018-04-21T09:04:49.717Z,22.00
2018-04-21T09:05:49.715Z,22.10
2018-04-21T09:06:49.709Z,22.26
2018-04-21T09:07:49.690Z,22.14
2018-04-21T09:08:49.791Z,22.30
2018-04-21T09:09:49.680Z,22.52
2018-04-21T09:10:49.663Z,22.70
2018-04-21T09:11:49.657Z,22.89
2018-04-21T09:12:49.647Z,22.80
2018-04-21T09:13:49.639Z,22.98
2018-04-21T09:14:49.631Z,22.83
2018-04-21T09:15:49.644Z,22.56
2018-04-21T09:16:49.614Z,22.58
2018-04-21T09:17:49.610Z,22.16
2018-04-21T09:18:49.597Z,22.14
2018-04-21T09:19:49.596Z,22.00
2018-04-21T09:20:49.583Z,22.19
2018-04-21T09:21:49.589Z,21.83
2018-04-21T09:22:49.567Z,21.94
2018-04-21T09:23:49.556Z,22.37
2018-04-21T09:24:49.552Z,22.52
2018-04-21T09:25:49.551Z,22.58
2018-04-21T09:26:49.532Z,22.68
2018-04-21T09:27:49.525Z,22.78
2018-04-21T09:28:49.516Z,22.81
2018-04-21T09:29:49.517Z,22.63
2018-04-21T09:30:49.502Z,22.67
2018-04-21T09:31:49.495Z,22.89
2018-04-21T09:32:49.495Z,23.10
2018-04-21T09:33:49.494Z,23.34
2018-04-21T09:34:49.469Z,23.55
2018-04-21T09:35:49.465Z,23.51
2018-04-21T09:36:49.459Z,23.36
2018-04-21T09:37:49.454Z,23.49
2018-04-21T09:38:49.456Z,23.69
2018-04-21T09:39:49.441Z,23.70
2018-04-21T09:40:49.445Z,24.07
2018-04-21T09:41:49.453Z,24.34
2018-04-21T09:42:49.428Z,24.46
2018-04-21T09:43:49.428Z,24.01
2018-04-21T09:44:49.430Z,24.43
2018-04-21T09:45:49.427Z,24.78
2018-04-21T09:46:49.419Z,25.26
2018-04-21T09:47:49.426Z,25.46
2018-04-21T09:48:49.423Z,25.36
2018-04-21T09:49:49.420Z,25.21
2018-04-21T09:50:49.410Z,25.36
2018-04-21T09:51:49.411Z,25.49
2018-04-21T09:52:49.408Z,25.85
2018-04-21T09:53:49.415Z,26.10
2018-04-21T09:54:49.416Z,26.22
2018-04-21T09:55:49.411Z,25.63
2018-04-21T09:56:49.411Z,24.93
2018-04-21T09:57:49.405Z,25.37
2018-04-21T09:58:49.410Z,25.59
2018-04-21T09:59:49.512Z,25.63
2018-04-21T10:00:49.416Z,25.95
2018-04-21T10:01:49.409Z,26.07
2018-04-21T10:02:49.417Z,26.06
2018-04-21T10:03:49.421Z,26.04
2018-04-21T10:04:49.422Z,25.92
2018-04-21T10:05:49.418Z,26.18
2018-04-21T10:06:49.421Z,26.39
2018-04-21T10:07:49.427Z,26.39
2018-04-21T10:08:49.421Z,26.56
2018-04-21T10:09:49.428Z,26.29
2018-04-21T10:10:49.427Z,26.27
2018-04-21T10:11:49.436Z,26.15
2018-04-21T10:12:49.439Z,26.11
2018-04-21T10:13:49.436Z,26.06
2018-04-21T10:14:49.472Z,26.24
2018-04-21T10:15:49.446Z,26.52
2018-04-21T10:16:49.441Z,26.48
2018-04-21T10:17:49.445Z,26.52
2018-04-21T10:18:49.445Z,26.34
2018-04-21T10:19:49.450Z,26.67
2018-04-21T10:20:49.457Z,26.81
2018-04-21T10:21:49.465Z,26.82
2018-04-21T10:22:49.473Z,26.73
2018-04-21T10:23:49.465Z,26.55
2018-04-21T10:24:49.506Z,26.61
2018-04-21T10:25:49.467Z,26.61
2018-04-21T10:26:49.476Z,26.56
2018-04-21T10:27:49.482Z,26.96
2018-04-21T10:28:49.480Z,26.51
2018-04-21T10:29:49.486Z,26.41
2018-04-21T10:30:49.496Z,26.56
2018-04-21T10:31:49.495Z,26.68
2018-04-21T10:32:49.498Z,26.70
2018-04-21T10:33:49.495Z,26.92
2018-04-21T10:34:49.506Z,27.07
2018-04-21T10:35:49.508Z,27.19
2018-04-21T10:36:49.512Z,26.96
2018-04-21T10:37:49.514Z,27.08
2018-04-21T10:38:49.585Z,27.19
2018-04-21T10:39:49.523Z,26.89
2018-04-21T10:40:49.531Z,26.79
2018-04-21T10:41:49.531Z,26.59
2018-04-21T10:42:49.532Z,26.86
2018-04-21T10:43:49.536Z,27.04
2018-04-21T10:44:49.543Z,27.25
2018-04-21T10:45:49.598Z,27.04
2018-04-21T10:46:49.548Z,27.07
2018-04-21T10:47:49.554Z,27.08
2018-04-21T10:48:49.556Z,27.15
2018-04-21T10:49:49.570Z,27.08
2018-04-21T10:50:49.717Z,27.18
2018-04-21T10:51:49.577Z,26.92
2018-04-21T10:52:49.581Z,27.22
2018-04-21T10:53:49.585Z,27.22
2018-04-21T10:54:49.585Z,27.25
2018-04-21T10:55:49.588Z,27.18
2018-04-21T10:56:49.590Z,26.96
2018-04-21T10:57:49.609Z,26.88
2018-04-21T10:58:49.609Z,26.73
2018-04-21T10:59:49.616Z,26.16
2018-04-21T11:00:49.615Z,26.36
2018-04-21T11:01:49.620Z,26.42
2018-04-21T11:02:49.637Z,25.91
2018-04-21T11:03:49.662Z,26.16
2018-04-21T11:04:49.626Z,26.18
2018-04-21T11:05:49.625Z,26.53
2018-04-21T11:06:49.635Z,26.86
2018-04-21T11:07:49.664Z,26.89
2018-04-21T11:08:49.654Z,27.10
2018-04-21T11:09:49.716Z,27.10
2018-04-21T11:10:49.651Z,27.15
2018-04-21T11:11:49.651Z,27.13
2018-04-21T11:12:49.654Z,26.86
2018-04-21T11:13:49.678Z,27.10
2018-04-21T11:14:49.679Z,27.28
2018-04-21T11:15:49.669Z,27.50
2018-04-21T11:16:49.681Z,27.67
2018-04-21T11:17:49.687Z,27.33
2018-04-21T11:18:49.689Z,27.16
2018-04-21T11:19:49.698Z,27.10
2018-04-21T11:20:49.691Z,27.08
2018-04-21T11:21:49.706Z,27.19
2018-04-21T11:22:49.759Z,27.13
2018-04-21T11:23:49.707Z,26.85
2018-04-21T11:24:49.772Z,26.93
2018-04-21T11:25:49.711Z,26.86
2018-04-21T11:26:49.724Z,26.96
2018-04-21T11:27:49.721Z,27.11
2018-04-21T11:28:49.728Z,27.01
2018-04-21T11:29:49.732Z,27.19
2018-04-21T11:30:49.755Z,27.57
2018-04-21T11:31:49.751Z,27.04
2018-04-21T11:32:49.749Z,26.91
2018-04-21T11:33:49.752Z,26.68
2018-04-21T11:34:49.769Z,26.76
2018-04-21T11:35:49.758Z,26.85
2018-04-21T11:36:49.770Z,27.04
2018-04-21T11:37:49.771Z,27.00
2018-04-21T11:38:49.776Z,26.73
2018-04-21T11:39:49.772Z,26.74
2018-04-21T11:40:49.777Z,26.76
2018-04-21T11:41:49.777Z,26.78
2018-04-21T11:42:49.786Z,26.98
2018-04-21T11:43:49.786Z,26.96
2018-04-21T11:44:49.791Z,26.92
2018-04-21T11:45:49.790Z,26.86
2018-04-21T11:46:49.795Z,26.83
2018-04-21T11:47:49.805Z,26.96
2018-04-21T11:48:49.813Z,26.66
2018-04-21T11:49:49.816Z,26.83
2018-04-21T11:50:49.805Z,26.76
2018-04-21T11:51:49.816Z,26.67
2018-04-21T11:52:49.832Z,26.85
2018-04-21T11:53:49.807Z,27.01
2018-04-21T11:54:49.808Z,26.83
2018-04-21T11:55:49.816Z,26.61
2018-04-21T11:56:49.810Z,26.93
2018-04-21T11:57:49.808Z,27.07
2018-04-21T11:58:49.808Z,27.22
2018-04-21T11:59:49.815Z,27.30
2018-04-21T12:00:49.821Z,27.35
2018-04-21T12:01:49.932Z,27.37
2018-04-21T12:02:49.821Z,27.05
2018-04-21T12:03:49.816Z,26.61
2018-04-21T12:04:49.813Z,26.24
2018-04-21T12:05:49.805Z,26.18
2018-04-21T12:06:49.805Z,25.99
2018-04-21T12:07:49.814Z,25.74
2018-04-21T12:08:49.818Z,25.40
2018-04-21T12:09:49.798Z,25.41
2018-04-21T12:10:49.915Z,25.49
2018-04-21T12:11:49.793Z,25.41
2018-04-21T12:12:49.792Z,25.36
2018-04-21T12:13:49.800Z,25.36
2018-04-21T12:14:49.792Z,25.46
2018-04-21T12:15:49.791Z,25.00
2018-04-21T12:16:49.783Z,24.79
2018-04-21T12:17:49.773Z,24.89
2018-04-21T12:18:49.766Z,24.85
2018-04-21T12:19:49.780Z,24.84
2018-04-21T12:20:49.901Z,24.97
2018-04-21T12:21:49.759Z,24.82
2018-04-21T12:22:49.756Z,24.88
2018-04-21T12:23:49.747Z,24.89
2018-04-21T12:24:49.757Z,25.04
2018-04-21T12:25:49.736Z,25.07
2018-04-21T12:26:49.732Z,25.21
2018-04-21T12:27:49.726Z,25.14
2018-04-21T12:28:49.740Z,25.34
2018-04-21T12:29:49.724Z,25.39
2018-04-21T12:30:49.712Z,25.24
2018-04-21T12:31:49.702Z,25.19
2018-04-21T12:32:49.703Z,25.07
2018-04-21T12:33:49.693Z,24.85
2018-04-21T12:34:49.684Z,24.68
2018-04-21T12:35:49.681Z,24.58
2018-04-21T12:36:49.683Z,24.26
2018-04-21T12:37:49.677Z,24.31
2018-04-21T12:38:49.868Z,24.26
2018-04-21T12:39:49.664Z,24.37
2018-04-21T12:40:49.649Z,24.48
2018-04-21T12:41:49.690Z,24.68
2018-04-21T12:42:49.639Z,24.89
2018-04-21T12:43:49.641Z,24.88
2018-04-21T12:44:49.623Z,24.97
2018-04-21T12:45:49.646Z,25.07
2018-04-21T12:46:49.607Z,25.14
2018-04-21T12:47:49.609Z,24.99
2018-04-21T12:48:49.599Z,25.07
2018-04-21T12:49:49.592Z,24.69
2018-04-21T12:50:49.589Z,24.59
2018-04-21T12:51:49.578Z,24.55
2018-04-21T12:52:49.581Z,24.40